createdAt,value
2017-08-27T00:01:17.926Z,6.40
2017-08-27T00:03:45.447Z,6.82
2017-08-27T00:06:16.414Z,6.22
2017-08-27T00:08:43.934Z,6.18
2017-08-27T00:11:11.446Z,6.45
2017-08-27T00:13:38.968Z,6.15
2017-08-27T00:16:06.475Z,6.12
2017-08-27T00:18:33.995Z,6.30
2017-08-27T00:21:01.507Z,7.40
2017-08-27T00:23:29.034Z,6.15
2017-08-27T00:25:56.538Z,6.00
2017-08-27T00:28:24.064Z,6.85
2017-08-27T00:30:51.557Z,5.85
2017-08-27T00:33:19.074Z,6.75
2017-08-27T00:35:46.583Z,6.93
2017-08-27T00:38:14.121Z,6.55
2017-08-27T00:40:41.623Z,6.18
2017-08-27T00:43:09.142Z,6.70
2017-08-27T00:45:36.654Z,6.25
2017-08-27T00:48:04.194Z,6.93
2017-08-27T00:50:31.690Z,6.47
2017-08-27T00:52:59.194Z,6.72
2017-08-27T00:55:26.719Z,5.97
2017-08-27T00:57:54.230Z,6.72
2017-08-27T01:00:21.763Z,6.10
2017-08-27T01:02:49.270Z,6.00
2017-08-27T01:05:16.800Z,6.43
2017-08-27T01:07:44.327Z,6.15
2017-08-27T01:10:11.838Z,5.45
2017-08-27T01:12:39.342Z,6.80
2017-08-27T01:15:06.864Z,6.55
2017-08-27T01:17:34.381Z,5.80
2017-08-27T01:20:01.902Z,6.62
2017-08-27T01:22:29.402Z,6.62
2017-08-27T01:24:56.909Z,6.75
2017-08-27T01:27:24.426Z,6.75
2017-08-27T01:29:51.939Z,6.18
2017-08-27T01:32:19.446Z,6.93
2017-08-27T01:34:46.962Z,6.20
2017-08-27T01:37:14.462Z,5.47
2017-08-27T01:39:41.983Z,5.70
2017-08-27T01:42:09.486Z,6.20
2017-08-27T01:44:37.008Z,6.70
2017-08-27T01:47:04.512Z,6.00
2017-08-27T01:49:32.054Z,6.05
2017-08-27T01:51:59.554Z,6.30
2017-08-27T01:54:27.058Z,6.12
2017-08-27T01:56:54.600Z,6.28
2017-08-27T01:59:22.102Z,5.95
2017-08-27T02:01:49.623Z,7.60
2017-08-27T02:04:17.126Z,6.97
2017-08-27T02:06:44.648Z,6.65
2017-08-27T02:09:12.146Z,6.40
2017-08-27T02:11:39.675Z,6.37
2017-08-27T02:14:07.178Z,7.50
2017-08-27T02:16:36.206Z,6.65
2017-08-27T02:19:03.706Z,7.05
2017-08-27T02:21:31.226Z,6.90
2017-08-27T02:23:58.757Z,7.07
2017-08-27T02:26:26.314Z,6.15
2017-08-27T02:28:53.818Z,6.03
2017-08-27T02:31:21.343Z,6.65
2017-08-27T02:33:48.855Z,7.50
2017-08-27T02:36:16.386Z,6.78
2017-08-27T02:38:43.895Z,6.30
2017-08-27T02:41:11.494Z,6.53
2017-08-27T02:43:39.002Z,6.62
2017-08-27T02:46:06.528Z,6.93
2017-08-27T02:48:34.031Z,5.72
2017-08-27T02:51:01.573Z,6.53
2017-08-27T02:53:29.075Z,5.97
2017-08-27T02:55:56.570Z,6.75
2017-08-27T02:58:24.090Z,5.90
2017-08-27T03:00:51.591Z,6.85
2017-08-27T03:03:19.110Z,5.80
2017-08-27T03:05:46.612Z,5.68
2017-08-27T03:08:14.130Z,5.82
2017-08-27T03:10:41.634Z,6.05
2017-08-27T03:13:09.151Z,6.35
2017-08-27T03:15:36.646Z,6.35
2017-08-27T03:18:04.162Z,6.25
2017-08-27T03:20:31.666Z,6.15
2017-08-27T03:22:59.191Z,7.03
2017-08-27T03:25:26.694Z,5.75
2017-08-27T03:27:54.219Z,6.15
2017-08-27T03:30:21.715Z,6.30
2017-08-27T03:32:49.239Z,6.28
2017-08-27T03:35:16.738Z,5.53
2017-08-27T03:37:44.248Z,6.20
2017-08-27T03:40:11.755Z,5.60
2017-08-27T03:42:39.283Z,5.85
2017-08-27T03:45:06.783Z,5.37
2017-08-27T03:47:34.314Z,6.05
2017-08-27T03:50:01.826Z,6.10
2017-08-27T03:52:29.334Z,5.97
2017-08-27T03:54:56.830Z,5.95
2017-08-27T03:57:24.352Z,5.95
2017-08-27T03:59:51.858Z,6.50
2017-08-27T04:02:19.363Z,5.95
2017-08-27T04:04:46.878Z,6.80
2017-08-27T04:07:14.382Z,5.80
2017-08-27T04:09:41.902Z,5.87
2017-08-27T04:12:09.398Z,5.45
2017-08-27T04:14:36.987Z,6.25
2017-08-27T04:17:04.495Z,6.47
2017-08-27T04:19:32.026Z,5.72
2017-08-27T04:21:59.523Z,6.32
2017-08-27T04:24:27.042Z,4.78
2017-08-27T04:26:54.542Z,6.22
2017-08-27T04:29:22.058Z,6.72
2017-08-27T04:31:49.563Z,6.85
2017-08-27T04:34:17.084Z,6.35
2017-08-27T04:36:44.593Z,6.37
2017-08-27T04:39:12.111Z,5.82
2017-08-27T04:41:39.627Z,6.95
2017-08-27T04:44:07.143Z,6.22
2017-08-27T04:46:34.647Z,6.05
2017-08-27T04:49:02.182Z,6.95
2017-08-27T04:51:29.692Z,6.10
2017-08-27T04:53:57.193Z,6.78
2017-08-27T04:56:24.727Z,6.10
2017-08-27T04:58:52.239Z,6.20
2017-08-27T05:01:19.758Z,5.55
2017-08-27T05:03:47.259Z,6.07
2017-08-27T05:06:14.786Z,5.87
2017-08-27T05:08:42.290Z,6.00
2017-08-27T05:11:09.806Z,6.57
2017-08-27T05:13:37.308Z,6.43
2017-08-27T05:16:04.832Z,6.47
2017-08-27T05:18:32.335Z,5.20
2017-08-27T05:20:59.852Z,5.70
2017-08-27T05:23:27.362Z,6.45
2017-08-27T05:25:54.923Z,5.60
2017-08-27T05:28:22.422Z,5.70
2017-08-27T05:30:49.951Z,5.97
2017-08-27T05:33:18.214Z,6.40
2017-08-27T05:35:45.738Z,5.82
2017-08-27T05:38:13.233Z,5.90
2017-08-27T05:40:40.750Z,5.75
2017-08-27T05:43:08.246Z,5.50
2017-08-27T05:45:35.866Z,6.82
2017-08-27T05:48:03.362Z,5.65
2017-08-27T05:50:30.899Z,6.53
2017-08-27T05:52:58.401Z,5.72
2017-08-27T05:55:25.902Z,5.87
2017-08-27T05:57:53.418Z,5.97
2017-08-27T06:00:20.919Z,5.72
2017-08-27T06:02:48.430Z,5.93
2017-08-27T06:05:15.945Z,6.10
2017-08-27T06:07:43.468Z,5.62
2017-08-27T06:10:11.019Z,6.05
2017-08-27T06:12:38.542Z,5.72
2017-08-27T06:15:06.050Z,6.20
2017-08-27T06:17:33.575Z,5.65
2017-08-27T06:20:01.134Z,5.80
2017-08-27T06:22:29.119Z,6.32
2017-08-27T06:24:56.678Z,5.43
2017-08-27T06:27:24.267Z,5.75
2017-08-27T06:29:51.771Z,5.90
2017-08-27T06:32:20.050Z,5.65
2017-08-27T06:34:47.553Z,5.18
2017-08-27T06:37:15.316Z,5.40
2017-08-27T06:39:42.831Z,5.53
2017-08-27T06:42:10.350Z,4.93
2017-08-27T06:44:37.948Z,5.32
2017-08-27T06:47:05.484Z,5.60
2017-08-27T06:49:33.062Z,4.97
2017-08-27T06:52:00.755Z,5.20
2017-08-27T06:54:28.262Z,6.05
2017-08-27T06:56:55.769Z,6.15
2017-08-27T06:59:23.294Z,4.90
2017-08-27T07:01:50.799Z,5.68
2017-08-27T07:04:18.319Z,4.80
2017-08-27T07:06:45.823Z,5.93
2017-08-27T07:09:13.338Z,5.25
2017-08-27T07:11:40.847Z,4.85
2017-08-27T07:14:08.375Z,5.20
2017-08-27T07:16:35.879Z,5.65
2017-08-27T07:19:03.402Z,4.97
2017-08-27T07:21:30.908Z,5.53
2017-08-27T07:23:58.430Z,5.47
2017-08-27T07:26:25.941Z,5.85
2017-08-27T07:28:53.459Z,5.32
2017-08-27T07:31:20.963Z,5.22
2017-08-27T07:33:48.495Z,5.78
2017-08-27T07:36:16.067Z,5.15
2017-08-27T07:38:43.579Z,4.93
2017-08-27T07:41:11.078Z,4.87
2017-08-27T07:43:38.591Z,5.00
2017-08-27T07:46:06.103Z,5.80
2017-08-27T07:48:33.633Z,5.25
2017-08-27T07:51:01.159Z,4.93
2017-08-27T07:53:28.718Z,5.10
2017-08-27T07:55:56.223Z,4.40
2017-08-27T07:58:23.738Z,5.07
2017-08-27T08:00:51.273Z,4.93
2017-08-27T08:03:18.849Z,5.32
2017-08-27T08:05:46.429Z,5.25
2017-08-27T08:08:13.950Z,5.05
2017-08-27T08:10:41.490Z,4.57
2017-08-27T08:13:09.002Z,5.25
2017-08-27T08:15:36.532Z,5.20
2017-08-27T08:18:04.047Z,4.82
2017-08-27T08:20:31.571Z,5.07
2017-08-27T08:22:59.070Z,4.32
2017-08-27T08:25:26.591Z,4.80
2017-08-27T08:27:54.104Z,5.07
2017-08-27T08:30:21.622Z,5.87
2017-08-27T08:32:49.882Z,4.45
2017-08-27T08:35:17.410Z,4.62
2017-08-27T08:37:44.922Z,5.20
2017-08-27T08:40:12.447Z,4.82
2017-08-27T08:42:39.951Z,5.35
2017-08-27T08:45:07.475Z,4.40
2017-08-27T08:47:35.024Z,5.05
2017-08-27T08:50:02.559Z,5.20
2017-08-27T08:52:30.077Z,4.75
2017-08-27T08:54:57.603Z,5.32
2017-08-27T08:57:25.119Z,4.97
2017-08-27T08:59:52.615Z,4.40
2017-08-27T09:02:20.152Z,5.60
2017-08-27T09:04:47.659Z,5.22
2017-08-27T09:07:15.178Z,5.05
2017-08-27T09:09:42.678Z,4.47
2017-08-27T09:12:10.190Z,4.87
2017-08-27T09:14:37.686Z,5.28
2017-08-27T09:17:05.364Z,4.25
2017-08-27T09:19:32.930Z,3.72
2017-08-27T09:22:00.458Z,4.32
2017-08-27T09:24:27.955Z,4.65
2017-08-27T09:26:55.466Z,6.07
2017-08-27T09:29:22.962Z,4.90
2017-08-27T09:31:50.486Z,4.60
2017-08-27T09:34:17.994Z,5.12
2017-08-27T09:36:45.510Z,4.95
2017-08-27T09:39:13.014Z,5.22
2017-08-27T09:41:40.534Z,5.40
2017-08-27T09:44:08.091Z,4.70
2017-08-27T09:46:35.620Z,4.97
2017-08-27T09:49:03.123Z,5.28
2017-08-27T09:51:30.638Z,5.18
2017-08-27T09:53:58.141Z,5.72
2017-08-27T09:56:26.438Z,5.10
2017-08-27T09:58:53.970Z,4.53
2017-08-27T10:01:21.483Z,5.07
2017-08-27T10:03:49.021Z,5.22
2017-08-27T10:06:16.561Z,4.90
2017-08-27T10:08:44.087Z,5.45
2017-08-27T10:11:11.587Z,5.07
2017-08-27T10:13:39.136Z,4.35
2017-08-27T10:16:06.643Z,4.53
2017-08-27T10:18:34.200Z,4.40
2017-08-27T10:21:01.702Z,5.05
2017-08-27T10:23:29.233Z,4.75
2017-08-27T10:25:56.747Z,5.10
2017-08-27T10:28:24.278Z,4.93
2017-08-27T10:30:51.790Z,5.25
2017-08-27T10:33:19.318Z,5.20
2017-08-27T10:35:46.819Z,5.05
2017-08-27T10:38:14.334Z,4.85
2017-08-27T10:40:41.838Z,4.57
2017-08-27T10:43:09.366Z,4.75
2017-08-27T10:45:36.903Z,4.80
2017-08-27T10:48:04.425Z,11.35
2017-08-27T10:50:31.943Z,7.65
2017-08-27T10:52:59.485Z,8.30
2017-08-27T10:55:27.027Z,6.32
2017-08-27T10:57:55.442Z,5.75
2017-08-27T11:00:22.946Z,5.10
2017-08-27T11:02:50.482Z,5.37
2017-08-27T11:05:18.010Z,5.30
2017-08-27T11:07:45.520Z,5.12
2017-08-27T11:10:13.050Z,4.90
2017-08-27T11:12:40.558Z,5.22
2017-08-27T11:15:08.143Z,4.93
2017-08-27T11:17:35.711Z,4.72
2017-08-27T11:20:03.257Z,5.20
2017-08-27T11:22:30.749Z,4.95
2017-08-27T11:24:58.266Z,5.32
2017-08-27T11:27:25.770Z,5.70
2017-08-27T11:29:53.306Z,6.07
2017-08-27T11:32:20.815Z,4.95
2017-08-27T11:34:48.350Z,5.62
2017-08-27T11:37:15.851Z,5.60
2017-08-27T11:39:43.385Z,5.25
2017-08-27T11:42:10.895Z,5.75
2017-08-27T11:44:38.423Z,6.22
2017-08-27T11:47:05.924Z,5.93
2017-08-27T11:49:33.451Z,5.87
2017-08-27T11:52:00.947Z,6.20
2017-08-27T11:54:28.473Z,7.28
2017-08-27T11:56:55.986Z,6.60
2017-08-27T11:59:23.530Z,6.50
2017-08-27T12:01:51.075Z,7.18
2017-08-27T12:04:18.655Z,6.35
2017-08-27T12:06:46.190Z,6.57
2017-08-27T12:09:13.695Z,6.15
2017-08-27T12:11:41.215Z,5.97
2017-08-27T12:14:08.719Z,4.70
2017-08-27T12:16:36.239Z,4.53
2017-08-27T12:19:04.503Z,4.50
2017-08-27T12:21:32.024Z,4.05
2017-08-27T12:23:59.535Z,5.32
2017-08-27T12:26:27.086Z,4.53
2017-08-27T12:28:54.590Z,4.32
2017-08-27T12:31:22.115Z,4.90
2017-08-27T12:33:49.618Z,4.20
2017-08-27T12:36:17.146Z,4.70
2017-08-27T12:38:44.651Z,4.47
2017-08-27T12:41:12.167Z,4.30
2017-08-27T12:43:39.675Z,4.55
2017-08-27T12:46:07.195Z,5.10
2017-08-27T12:48:34.702Z,5.80
2017-08-27T12:51:02.226Z,4.47
2017-08-27T12:53:29.728Z,4.53
2017-08-27T12:55:57.249Z,4.62
2017-08-27T12:58:24.759Z,4.70
2017-08-27T13:00:52.293Z,4.60
2017-08-27T13:03:19.794Z,4.07
2017-08-27T13:05:47.295Z,4.25
2017-08-27T13:08:14.812Z,6.65
2017-08-27T13:10:42.319Z,4.60
2017-08-27T13:13:09.842Z,4.95
2017-08-27T13:15:37.350Z,5.55
2017-08-27T13:18:04.873Z,4.93
2017-08-27T13:20:32.387Z,3.95
2017-08-27T13:22:59.915Z,4.40
2017-08-27T13:25:27.415Z,3.72
2017-08-27T13:27:54.947Z,3.90
2017-08-27T13:30:22.471Z,4.45
2017-08-27T13:32:50.054Z,4.37
2017-08-27T13:35:18.519Z,3.95
2017-08-27T13:37:46.080Z,4.22
2017-08-27T13:40:13.593Z,4.32
2017-08-27T13:42:41.136Z,4.50
2017-08-27T13:45:08.643Z,4.62
2017-08-27T13:47:36.178Z,4.37
2017-08-27T13:50:03.698Z,3.78
2017-08-27T13:52:31.231Z,4.00
2017-08-27T13:54:58.759Z,4.18
2017-08-27T13:57:26.324Z,4.00
2017-08-27T13:59:53.874Z,4.05
2017-08-27T14:02:21.426Z,4.85
2017-08-27T14:04:48.931Z,4.68
2017-08-27T14:07:16.475Z,4.15
2017-08-27T14:09:44.030Z,4.57
2017-08-27T14:12:11.560Z,4.25
2017-08-27T14:14:39.086Z,4.55
2017-08-27T14:17:06.671Z,5.20
2017-08-27T14:19:34.207Z,4.70
2017-08-27T14:22:01.719Z,4.40
2017-08-27T14:24:29.315Z,5.10
2017-08-27T14:26:56.822Z,4.97
2017-08-27T14:29:24.421Z,4.28
2017-08-27T14:31:51.989Z,5.00
2017-08-27T14:34:19.520Z,4.70
2017-08-27T14:36:47.013Z,4.78
2017-08-27T14:39:14.557Z,5.30
2017-08-27T14:41:42.107Z,4.40
2017-08-27T14:44:09.643Z,6.00
2017-08-27T14:46:37.182Z,4.50
2017-08-27T14:49:04.822Z,6.25
2017-08-27T14:51:32.348Z,4.70
2017-08-27T14:54:00.564Z,4.95
2017-08-27T14:56:28.120Z,6.03
2017-08-27T14:58:55.639Z,5.78
2017-08-27T15:01:23.132Z,5.15
2017-08-27T15:03:50.658Z,5.40
2017-08-27T15:06:18.162Z,4.62
2017-08-27T15:08:45.663Z,4.72
2017-08-27T15:11:13.177Z,5.18
2017-08-27T15:13:40.674Z,5.12
2017-08-27T15:16:08.191Z,5.85
2017-08-27T15:18:35.687Z,4.80
2017-08-27T15:21:03.201Z,4.50
2017-08-27T15:23:30.703Z,5.50
2017-08-27T15:25:58.218Z,5.37
2017-08-27T15:28:25.710Z,4.50
2017-08-27T15:30:53.246Z,5.00
2017-08-27T15:33:20.742Z,5.00
2017-08-27T15:35:48.266Z,5.70
2017-08-27T15:38:15.782Z,5.70
2017-08-27T15:40:45.828Z,5.05
2017-08-27T15:43:13.335Z,5.70
2017-08-27T15:45:41.614Z,6.85
2017-08-27T15:48:09.116Z,6.82
2017-08-27T15:50:36.633Z,7.12
2017-08-27T15:53:04.150Z,7.55
2017-08-27T15:55:31.685Z,7.78
2017-08-27T15:57:59.984Z,6.65
2017-08-27T16:00:27.502Z,6.05
2017-08-27T16:02:55.004Z,5.82
2017-08-27T16:05:22.549Z,5.93
2017-08-27T16:07:50.838Z,6.03
2017-08-27T16:10:18.336Z,5.72
2017-08-27T16:12:45.855Z,6.22
2017-08-27T16:15:13.357Z,5.60
2017-08-27T16:17:41.003Z,5.40
2017-08-27T16:20:08.507Z,6.18
2017-08-27T16:22:36.026Z,6.65
2017-08-27T16:25:03.518Z,6.25
2017-08-27T16:27:31.039Z,5.90
2017-08-27T16:29:58.539Z,6.05
2017-08-27T16:32:26.052Z,5.75
2017-08-27T16:34:53.556Z,5.18
2017-08-27T16:37:21.069Z,6.40
2017-08-27T16:39:48.566Z,5.60
2017-08-27T16:42:16.082Z,6.30
2017-08-27T16:44:43.582Z,5.68
2017-08-27T16:47:23.038Z,5.90
2017-08-27T16:49:50.555Z,6.28
2017-08-27T16:52:18.074Z,6.40
2017-08-27T16:54:45.575Z,6.40
2017-08-27T16:57:13.099Z,6.62
2017-08-27T16:59:40.600Z,5.95
2017-08-27T17:02:08.120Z,7.32
2017-08-27T17:04:35.619Z,6.75
2017-08-27T17:07:03.138Z,6.37
2017-08-27T17:09:30.910Z,7.22
2017-08-27T17:11:59.268Z,7.62
2017-08-27T17:14:26.815Z,6.47
2017-08-27T17:16:54.315Z,7.10
2017-08-27T17:19:21.834Z,7.45
2017-08-27T17:21:49.343Z,7.35
2017-08-27T17:24:18.479Z,8.45
2017-08-27T17:26:46.164Z,7.85
2017-08-27T17:29:13.686Z,7.30
2017-08-27T17:31:41.188Z,8.43
2017-08-27T17:34:08.710Z,7.35
2017-08-27T17:36:36.231Z,7.10
2017-08-27T17:39:03.756Z,8.45
2017-08-27T17:41:31.263Z,6.87
2017-08-27T17:43:58.787Z,7.93
2017-08-27T17:46:27.062Z,7.45
2017-08-27T17:48:54.586Z,7.57
2017-08-27T17:51:22.094Z,7.20
2017-08-27T17:53:49.650Z,8.32
2017-08-27T17:56:17.172Z,7.68
2017-08-27T17:58:44.696Z,7.62
2017-08-27T18:01:12.210Z,6.68
2017-08-27T18:03:39.725Z,7.45
2017-08-27T18:06:07.243Z,8.63
2017-08-27T18:08:34.746Z,6.62
2017-08-27T18:11:02.283Z,8.02
2017-08-27T18:13:29.790Z,7.07
2017-08-27T18:15:57.956Z,7.60
2017-08-27T18:18:25.458Z,7.40
2017-08-27T18:20:52.978Z,8.05
2017-08-27T18:23:20.490Z,6.62
2017-08-27T18:25:48.016Z,7.53
2017-08-27T18:28:15.578Z,7.12
2017-08-27T18:30:43.863Z,6.53
2017-08-27T18:33:11.367Z,6.82
2017-08-27T18:35:39.771Z,7.68
2017-08-27T18:38:07.303Z,6.55
2017-08-27T18:40:34.935Z,6.82
2017-08-27T18:43:02.439Z,6.07
2017-08-27T18:45:29.959Z,7.20
2017-08-27T18:47:57.471Z,6.90
2017-08-27T18:50:24.986Z,7.95
2017-08-27T18:52:52.498Z,7.32
2017-08-27T18:55:20.014Z,8.35
2017-08-27T18:57:47.525Z,8.38
2017-08-27T19:00:15.824Z,9.60
2017-08-27T19:02:43.340Z,9.48
2017-08-27T19:05:10.874Z,9.15
2017-08-27T19:07:38.383Z,10.15
2017-08-27T19:10:05.894Z,9.00
2017-08-27T19:12:33.416Z,10.60
2017-08-27T19:15:00.918Z,10.18
2017-08-27T19:17:28.453Z,9.68
2017-08-27T19:19:55.968Z,8.32
2017-08-27T19:22:23.519Z,9.13
2017-08-27T19:24:51.026Z,8.75
2017-08-27T19:27:18.567Z,8.40
2017-08-27T19:29:46.077Z,7.45
2017-08-27T19:32:13.598Z,7.95
2017-08-27T19:34:41.106Z,7.43
2017-08-27T19:37:08.625Z,7.57
2017-08-27T19:39:36.127Z,8.13
2017-08-27T19:42:03.666Z,7.43
2017-08-27T19:44:31.166Z,7.07
2017-08-27T19:46:58.684Z,8.55
2017-08-27T19:49:26.198Z,7.95
2017-08-27T19:51:53.710Z,7.75
2017-08-27T19:54:21.227Z,7.60
2017-08-27T19:56:48.757Z,8.07
2017-08-27T19:59:16.253Z,7.90
2017-08-27T20:01:43.763Z,7.80
2017-08-27T20:04:11.269Z,8.68
2017-08-27T20:06:38.818Z,7.75
2017-08-27T20:09:06.324Z,8.85
2017-08-27T20:11:33.837Z,7.85
2017-08-27T20:14:01.358Z,8.02
2017-08-27T20:16:28.886Z,8.20
2017-08-27T20:18:56.411Z,7.80
2017-08-27T20:21:23.923Z,7.43
2017-08-27T20:23:51.439Z,8.93
2017-08-27T20:26:18.938Z,8.35
2017-08-27T20:28:46.454Z,8.40
2017-08-27T20:31:13.951Z,8.00
2017-08-27T20:33:41.485Z,7.82
2017-08-27T20:36:08.983Z,8.90
2017-08-27T20:38:36.509Z,8.45
2017-08-27T20:41:04.010Z,8.40
2017-08-27T20:43:31.554Z,7.55
2017-08-27T20:45:59.054Z,8.38
2017-08-27T20:48:26.566Z,7.87
2017-08-27T20:50:54.074Z,8.15
2017-08-27T20:53:21.594Z,7.78
2017-08-27T20:55:49.095Z,8.00
2017-08-27T20:58:16.611Z,8.50
2017-08-27T21:00:44.114Z,8.82
2017-08-27T21:03:11.627Z,8.20
2017-08-27T21:05:39.135Z,8.85
2017-08-27T21:08:06.671Z,8.02
2017-08-27T21:10:34.175Z,8.20
2017-08-27T21:13:01.678Z,8.98
2017-08-27T21:15:29.190Z,8.85
2017-08-27T21:17:56.695Z,8.18
2017-08-27T21:20:24.211Z,9.73
2017-08-27T21:22:51.710Z,8.65
2017-08-27T21:25:19.240Z,8.40
2017-08-27T21:27:46.742Z,8.32
2017-08-27T21:30:15.070Z,7.90
2017-08-27T21:32:42.568Z,8.30
2017-08-27T21:35:10.085Z,8.63
2017-08-27T21:37:37.583Z,8.85
2017-08-27T21:40:05.103Z,8.23
2017-08-27T21:42:32.634Z,8.60
2017-08-27T21:45:00.162Z,10.07
2017-08-27T21:47:27.668Z,8.10
2017-08-27T21:49:55.186Z,7.82
2017-08-27T21:52:22.686Z,8.88
2017-08-27T21:54:50.206Z,8.48
2017-08-27T21:57:17.706Z,8.50
2017-08-27T21:59:45.226Z,9.52
2017-08-27T22:02:12.735Z,9.35
2017-08-27T22:04:40.246Z,8.13
2017-08-27T22:07:07.750Z,8.95
2017-08-27T22:09:35.292Z,9.00
2017-08-27T22:12:02.791Z,8.75
2017-08-27T22:14:30.295Z,9.00
2017-08-27T22:16:57.854Z,9.27
2017-08-27T22:19:25.546Z,8.25
2017-08-27T22:21:53.070Z,9.02
2017-08-27T22:24:20.596Z,10.05
2017-08-27T22:26:48.107Z,8.57
2017-08-27T22:29:15.607Z,9.93
2017-08-27T22:31:43.122Z,9.13
2017-08-27T22:34:10.630Z,9.30
2017-08-27T22:36:38.146Z,9.18
2017-08-27T22:39:05.646Z,10.57
2017-08-27T22:41:33.162Z,8.80
2017-08-27T22:44:00.662Z,8.70
2017-08-27T22:46:28.184Z,10.50
2017-08-27T22:48:55.686Z,8.70
2017-08-27T22:51:23.198Z,10.35
2017-08-27T22:53:50.703Z,10.35
2017-08-27T22:56:18.214Z,9.00
2017-08-27T22:58:45.725Z,9.32
2017-08-27T23:01:13.242Z,9.13
2017-08-27T23:03:40.743Z,9.77
2017-08-27T23:06:08.270Z,10.25
2017-08-27T23:08:35.810Z,9.90
2017-08-27T23:11:03.333Z,10.75
2017-08-27T23:13:30.831Z,9.38
2017-08-27T23:15:58.334Z,9.30
2017-08-27T23:18:25.855Z,10.30
2017-08-27T23:20:53.355Z,10.00
2017-08-27T23:23:20.866Z,8.80
2017-08-27T23:25:48.362Z,10.55
2017-08-27T23:28:15.882Z,10.45
2017-08-27T23:30:43.377Z,9.68
2017-08-27T23:33:10.902Z,11.02
2017-08-27T23:35:38.394Z,9.65
2017-08-27T23:38:05.897Z,9.68
2017-08-27T23:40:33.401Z,10.48
2017-08-27T23:43:00.915Z,9.80
2017-08-27T23:45:28.416Z,9.98
2017-08-27T23:47:55.940Z,10.32
2017-08-27T23:50:23.438Z,10.98
2017-08-27T23:52:50.992Z,10.25
2017-08-27T23:55:18.494Z,9.23
2017-08-27T23:57:46.022Z,10.13
